createdAt,value
2022-10-03T00:00:21.229Z,10.63
2022-10-03T00:03:13.746Z,11.23
2022-10-03T00:05:56.323Z,9.10
2022-10-03T00:08:36.095Z,8.83
2022-10-03T00:11:32.851Z,9.63
2022-10-03T00:14:18.647Z,11.57
2022-10-03T00:17:03.199Z,9.83
2022-10-03T00:19:59.152Z,11.37
2022-10-03T00:22:31.714Z,11.53
2022-10-03T00:25:21.004Z,12.03
2022-10-03T00:28:02.918Z,11.10
2022-10-03T00:30:42.756Z,10.53
2022-10-03T00:33:27.610Z,10.57
2022-10-03T00:36:07.932Z,11.30
2022-10-03T00:38:43.775Z,11.80
2022-10-03T00:41:40.727Z,12.60
2022-10-03T00:44:26.454Z,12.43
2022-10-03T00:47:17.833Z,12.50
2022-10-03T00:50:23.294Z,10.27
2022-10-03T00:53:09.581Z,11.70
2022-10-03T00:55:55.995Z,9.73
2022-10-03T00:58:31.818Z,9.17
2022-10-03T01:01:31.585Z,11.23
2022-10-03T01:04:34.152Z,10.73
2022-10-03T01:07:21.721Z,11.07
2022-10-03T01:10:28.143Z,11.63
2022-10-03T01:13:18.594Z,11.83
2022-10-03T01:16:04.165Z,9.23
2022-10-03T01:19:00.016Z,10.77
2022-10-03T01:21:34.670Z,10.37
2022-10-03T01:24:51.118Z,12.53
2022-10-03T01:28:02.968Z,10.63
2022-10-03T01:30:52.797Z,11.27
2022-10-03T01:33:33.362Z,11.60
2022-10-03T01:36:12.872Z,13.80
2022-10-03T01:38:58.482Z,13.70
2022-10-03T01:42:00.273Z,11.93
2022-10-03T01:44:54.734Z,11.27
2022-10-03T01:47:51.459Z,11.73
2022-10-03T01:50:30.285Z,10.87
2022-10-03T01:53:19.674Z,11.70
2022-10-03T01:56:04.944Z,10.37
2022-10-03T01:59:00.021Z,16.13
2022-10-03T02:01:38.941Z,17.17
2022-10-03T02:04:11.501Z,16.07
2022-10-03T02:06:58.507Z,14.70
2022-10-03T02:09:45.488Z,14.73
2022-10-03T02:12:30.259Z,15.93
2022-10-03T02:15:05.805Z,12.87
2022-10-03T02:17:58.014Z,13.70
2022-10-03T02:20:48.599Z,12.90
2022-10-03T02:23:24.085Z,15.03
2022-10-03T02:26:09.469Z,13.43
2022-10-03T02:28:59.052Z,12.80
2022-10-03T02:31:56.975Z,15.33
2022-10-03T02:34:43.978Z,19.20
2022-10-03T02:37:48.427Z,17.47
2022-10-03T02:40:50.993Z,16.50
2022-10-03T02:44:09.329Z,16.57
2022-10-03T02:46:38.793Z,14.90
2022-10-03T02:49:23.921Z,14.50
2022-10-03T02:52:23.491Z,14.33
2022-10-03T02:55:12.071Z,14.80
2022-10-03T02:58:11.438Z,16.33
2022-10-03T03:01:14.252Z,13.90
2022-10-03T03:04:11.938Z,12.73
2022-10-03T03:06:54.450Z,18.40
2022-10-03T03:09:49.089Z,15.53
2022-10-03T03:12:24.708Z,14.23
2022-10-03T03:15:33.332Z,18.37
2022-10-03T03:18:18.893Z,17.87
2022-10-03T03:21:10.468Z,22.67
2022-10-03T03:24:09.071Z,17.60
2022-10-03T03:27:03.046Z,13.10
2022-10-03T03:29:55.742Z,14.00
2022-10-03T03:32:27.189Z,14.60
2022-10-03T03:35:19.172Z,15.80
2022-10-03T03:38:12.935Z,17.70
2022-10-03T03:41:06.954Z,14.53
2022-10-03T03:43:51.802Z,14.30
2022-10-03T03:46:30.560Z,14.73
2022-10-03T03:49:19.128Z,16.77
2022-10-03T03:51:56.787Z,16.00
2022-10-03T03:54:30.061Z,17.87
2022-10-03T03:57:39.010Z,15.10
2022-10-03T04:00:22.083Z,17.97
2022-10-03T04:03:01.817Z,18.27
2022-10-03T04:06:01.624Z,18.07
2022-10-03T04:08:59.177Z,17.33
2022-10-03T04:11:54.559Z,18.60
2022-10-03T04:14:37.829Z,17.43
2022-10-03T04:17:42.306Z,17.27
2022-10-03T04:20:17.310Z,16.40
2022-10-03T04:23:00.472Z,17.43
2022-10-03T04:25:42.506Z,15.37
2022-10-03T04:28:49.043Z,17.27
2022-10-03T04:31:39.513Z,15.27
2022-10-03T04:34:21.960Z,19.13
2022-10-03T04:37:14.772Z,15.87
2022-10-03T04:40:21.169Z,17.30
2022-10-03T04:43:10.357Z,18.00
2022-10-03T04:45:57.189Z,17.23
2022-10-03T04:48:29.101Z,18.00
2022-10-03T04:50:58.715Z,16.17
2022-10-03T04:54:02.953Z,17.13
2022-10-03T04:56:57.609Z,15.30
2022-10-03T04:59:48.713Z,16.67
2022-10-03T05:02:52.484Z,16.40
2022-10-03T05:05:52.787Z,17.93
2022-10-03T05:08:47.450Z,18.47
2022-10-03T05:11:43.535Z,22.07
2022-10-03T05:14:24.432Z,18.30
2022-10-03T05:17:32.737Z,16.37
2022-10-03T05:20:24.328Z,17.20
2022-10-03T05:23:02.410Z,20.77
2022-10-03T05:25:47.213Z,20.70
2022-10-03T05:28:16.890Z,17.67
2022-10-03T05:31:04.398Z,20.27
2022-10-03T05:33:31.583Z,17.77
2022-10-03T05:36:22.869Z,20.63
2022-10-03T05:39:27.603Z,20.40
2022-10-03T05:42:23.931Z,18.73
2022-10-03T05:45:10.606Z,19.77
2022-10-03T05:47:52.865Z,18.57
2022-10-03T05:50:44.513Z,17.17
2022-10-03T05:53:39.270Z,17.20
2022-10-03T05:56:25.711Z,17.67
2022-10-03T05:59:35.458Z,15.70
2022-10-03T06:02:41.035Z,17.60
2022-10-03T06:05:46.404Z,16.83
2022-10-03T06:08:36.999Z,20.03
2022-10-03T06:11:22.245Z,18.97
2022-10-03T06:14:27.216Z,18.47
2022-10-03T06:17:04.775Z,17.07
2022-10-03T06:19:49.814Z,18.23
2022-10-03T06:22:38.289Z,16.30
2022-10-03T06:25:29.933Z,18.10
2022-10-03T06:28:44.939Z,15.80
2022-10-03T06:31:50.511Z,20.73
2022-10-03T06:34:17.546Z,21.90
2022-10-03T06:37:18.557Z,19.17
2022-10-03T06:40:15.760Z,17.80
2022-10-03T06:43:34.901Z,20.43
2022-10-03T06:46:23.377Z,18.33
2022-10-03T06:49:02.335Z,18.43
2022-10-03T06:52:00.070Z,19.07
2022-10-03T06:54:45.330Z,18.17
2022-10-03T06:57:37.903Z,19.27
2022-10-03T07:00:43.230Z,16.87
2022-10-03T07:03:38.114Z,19.23
2022-10-03T07:06:11.671Z,19.77
2022-10-03T07:08:58.250Z,20.70
2022-10-03T07:11:46.866Z,17.47
2022-10-03T07:14:41.342Z,20.50
2022-10-03T07:17:42.190Z,18.97
2022-10-03T07:20:33.082Z,17.80
2022-10-03T07:23:31.038Z,20.50
2022-10-03T07:26:10.812Z,16.50
2022-10-03T07:29:06.273Z,19.67
2022-10-03T07:31:51.401Z,14.83
2022-10-03T07:34:27.078Z,15.07
2022-10-03T07:37:24.646Z,16.67
2022-10-03T07:40:09.213Z,17.27
2022-10-03T07:43:01.760Z,16.67
2022-10-03T07:45:34.704Z,14.23
2022-10-03T07:48:29.529Z,17.90
2022-10-03T07:51:45.216Z,13.13
2022-10-03T07:54:36.348Z,14.30
2022-10-03T07:57:48.581Z,15.60
2022-10-03T08:00:24.446Z,16.07
2022-10-03T08:03:14.453Z,17.10
2022-10-03T08:05:59.293Z,12.73
2022-10-03T08:09:11.793Z,14.37
2022-10-03T08:12:08.701Z,13.43
2022-10-03T08:14:49.676Z,13.20
2022-10-03T08:17:50.515Z,14.00
2022-10-03T08:20:35.306Z,11.73
2022-10-03T08:23:43.418Z,11.23
2022-10-03T08:26:13.420Z,10.40
2022-10-03T08:28:50.623Z,10.47
2022-10-03T08:31:55.023Z,9.47
2022-10-03T08:34:59.862Z,11.20
2022-10-03T08:37:45.390Z,12.30
2022-10-03T08:40:40.195Z,9.63
2022-10-03T08:43:44.509Z,11.27
2022-10-03T08:46:48.871Z,13.70
2022-10-03T08:49:24.452Z,15.93
2022-10-03T08:51:51.200Z,12.10
2022-10-03T08:54:39.747Z,14.13
2022-10-03T08:57:09.578Z,22.77
2022-10-03T09:00:00.960Z,16.30
2022-10-03T09:03:31.959Z,15.90
2022-10-03T09:05:55.285Z,9.40
2022-10-03T09:08:50.747Z,10.50
2022-10-03T09:11:20.304Z,12.37
2022-10-03T09:14:11.012Z,10.80
2022-10-03T09:16:44.545Z,10.43
2022-10-03T09:19:36.073Z,11.73
2022-10-03T09:22:14.113Z,9.37
2022-10-03T09:25:06.880Z,9.53
2022-10-03T09:27:39.666Z,11.40
2022-10-03T09:30:12.601Z,11.53
2022-10-03T09:33:08.992Z,8.70
2022-10-03T09:35:51.089Z,10.10
2022-10-03T09:38:55.832Z,11.07
2022-10-03T09:41:41.341Z,13.33
2022-10-03T09:44:40.630Z,11.23
2022-10-03T09:47:31.558Z,10.70
2022-10-03T09:50:29.561Z,9.50
2022-10-03T09:53:28.035Z,8.57
2022-10-03T09:56:03.983Z,9.13
2022-10-03T09:58:40.459Z,9.43
2022-10-03T10:01:23.613Z,8.17
2022-10-03T10:04:12.046Z,8.47
2022-10-03T10:06:53.857Z,6.77
2022-10-03T10:09:41.834Z,9.63
2022-10-03T10:12:46.970Z,8.30
2022-10-03T10:15:51.313Z,10.07
2022-10-03T10:18:55.064Z,11.70
2022-10-03T10:21:43.693Z,10.73
2022-10-03T10:24:13.169Z,8.53
2022-10-03T10:26:51.850Z,10.53
2022-10-03T10:29:46.063Z,11.07
2022-10-03T10:32:50.263Z,10.90
2022-10-03T10:35:51.857Z,9.03
2022-10-03T10:38:43.609Z,9.23
2022-10-03T10:41:29.221Z,8.40
2022-10-03T10:44:17.987Z,6.60
2022-10-03T10:47:11.393Z,11.80
2022-10-03T10:49:57.353Z,8.17
2022-10-03T10:52:49.230Z,9.23
2022-10-03T10:55:37.750Z,7.60
2022-10-03T10:58:23.302Z,6.27
2022-10-03T11:01:28.761Z,9.73
2022-10-03T11:04:32.558Z,9.33
2022-10-03T11:07:27.015Z,7.87
2022-10-03T11:10:12.648Z,8.67
2022-10-03T11:12:59.005Z,9.00
2022-10-03T11:15:47.284Z,5.87
2022-10-03T11:18:43.387Z,7.43
2022-10-03T11:21:34.877Z,6.63
2022-10-03T11:24:20.553Z,7.03
2022-10-03T11:27:19.360Z,10.27
2022-10-03T11:30:14.194Z,9.30
2022-10-03T11:33:01.733Z,8.73
2022-10-03T11:36:06.280Z,6.93
2022-10-03T11:38:36.322Z,8.53
2022-10-03T11:41:20.460Z,9.70
2022-10-03T11:44:17.805Z,6.23
2022-10-03T11:46:59.641Z,10.13
2022-10-03T11:49:34.471Z,10.23
2022-10-03T11:52:41.703Z,6.57
2022-10-03T11:55:23.575Z,8.57
2022-10-03T11:58:01.276Z,4.63
2022-10-03T12:00:33.239Z,5.40
2022-10-03T12:03:26.865Z,7.33
2022-10-03T12:06:19.148Z,9.27
2022-10-03T12:09:06.481Z,8.40
2022-10-03T12:11:38.626Z,6.93
2022-10-03T12:14:29.092Z,8.90
2022-10-03T12:17:12.521Z,8.13
2022-10-03T12:19:45.089Z,10.13
2022-10-03T12:22:38.331Z,6.13
2022-10-03T12:25:26.231Z,7.70
2022-10-03T12:28:24.306Z,6.30
2022-10-03T12:31:27.120Z,4.87
2022-10-03T12:34:25.156Z,5.80
2022-10-03T12:37:13.842Z,5.50
2022-10-03T12:39:54.881Z,8.30
2022-10-03T12:42:40.862Z,5.40
2022-10-03T12:45:13.879Z,8.63
2022-10-03T12:47:56.698Z,8.60
2022-10-03T12:50:57.023Z,6.93
2022-10-03T12:53:53.487Z,6.70
2022-10-03T12:56:37.851Z,5.83
2022-10-03T12:59:14.786Z,7.63
2022-10-03T13:01:57.113Z,8.67
2022-10-03T13:04:47.699Z,5.53
2022-10-03T13:07:34.825Z,6.07
2022-10-03T13:10:31.213Z,4.87
2022-10-03T13:13:25.560Z,4.53
2022-10-03T13:16:39.970Z,3.67
2022-10-03T13:19:18.477Z,5.00
2022-10-03T13:22:08.285Z,6.07
2022-10-03T13:24:50.667Z,6.30
2022-10-03T13:27:36.580Z,6.97
2022-10-03T13:30:06.377Z,7.47
2022-10-03T13:32:37.223Z,4.80
2022-10-03T13:35:41.108Z,3.50
2022-10-03T13:38:31.819Z,4.17
2022-10-03T13:41:13.675Z,6.87
2022-10-03T13:43:48.795Z,6.73
2022-10-03T13:46:32.683Z,7.37
2022-10-03T13:49:12.016Z,5.87
2022-10-03T13:52:15.506Z,6.90
2022-10-03T13:55:01.273Z,4.80
2022-10-03T13:57:53.919Z,7.70
2022-10-03T14:00:25.008Z,4.93
2022-10-03T14:03:13.710Z,6.80
2022-10-03T14:05:46.534Z,7.03
2022-10-03T14:08:34.512Z,7.60
2022-10-03T14:11:27.017Z,5.67
2022-10-03T14:14:34.168Z,4.30
2022-10-03T14:17:08.226Z,5.40
2022-10-03T14:19:39.196Z,6.43
2022-10-03T14:22:24.556Z,9.47
2022-10-03T14:25:11.572Z,6.40
2022-10-03T14:27:52.957Z,9.73
2022-10-03T14:30:23.418Z,5.57
2022-10-03T14:33:10.932Z,9.33
2022-10-03T14:35:59.383Z,6.57
2022-10-03T14:38:57.915Z,6.17
2022-10-03T14:41:45.726Z,7.40
2022-10-03T14:44:51.130Z,5.60
2022-10-03T14:47:22.091Z,5.17
2022-10-03T14:49:59.202Z,6.43
2022-10-03T14:53:02.641Z,4.40
2022-10-03T14:55:53.693Z,5.73
2022-10-03T14:58:21.812Z,7.10
2022-10-03T15:01:25.242Z,5.00
2022-10-03T15:04:02.313Z,5.60
2022-10-03T15:06:39.574Z,6.00
2022-10-03T15:09:12.765Z,6.80
2022-10-03T15:12:09.626Z,6.53
2022-10-03T15:14:41.751Z,6.67
2022-10-03T15:17:44.688Z,4.70
2022-10-03T15:20:13.826Z,4.70
2022-10-03T15:22:47.009Z,5.30
2022-10-03T15:25:37.297Z,6.23
2022-10-03T15:28:24.649Z,6.53
2022-10-03T15:30:55.265Z,6.83
2022-10-03T15:33:22.384Z,9.00
2022-10-03T15:35:55.026Z,9.03
2022-10-03T15:38:27.193Z,5.70
2022-10-03T15:41:13.794Z,6.63
2022-10-03T15:43:53.213Z,6.17
2022-10-03T15:46:44.226Z,5.67
2022-10-03T15:49:26.461Z,7.77
2022-10-03T15:51:55.471Z,5.97
2022-10-03T15:54:26.228Z,5.37
2022-10-03T15:56:57.005Z,5.33
2022-10-03T15:59:33.529Z,6.40
2022-10-03T16:02:20.028Z,7.37
2022-10-03T16:04:48.338Z,4.53
2022-10-03T16:07:28.311Z,3.83
2022-10-03T16:10:10.809Z,4.70
2022-10-03T16:12:46.897Z,5.53
2022-10-03T16:15:27.565Z,3.70
2022-10-03T16:18:02.883Z,4.23
2022-10-03T16:20:45.679Z,4.97
2022-10-03T16:23:20.660Z,5.00
2022-10-03T16:25:56.564Z,5.17
2022-10-03T16:28:35.722Z,4.50
2022-10-03T16:31:13.462Z,3.50
2022-10-03T16:33:58.191Z,9.20
2022-10-03T16:36:25.734Z,5.83
2022-10-03T16:39:01.463Z,5.40
2022-10-03T16:41:31.717Z,4.90
2022-10-03T16:44:31.109Z,5.53
2022-10-03T16:47:03.017Z,5.13
2022-10-03T16:49:57.470Z,5.20
2022-10-03T16:52:35.484Z,5.77
2022-10-03T16:55:13.017Z,5.07
2022-10-03T16:58:18.341Z,5.10
2022-10-03T17:01:26.746Z,4.37
2022-10-03T17:04:42.708Z,4.77
2022-10-03T17:07:14.595Z,6.10
2022-10-03T17:09:50.207Z,5.43
2022-10-03T17:12:24.472Z,4.43
2022-10-03T17:14:54.801Z,5.20
2022-10-03T17:17:29.086Z,4.17
2022-10-03T17:20:11.285Z,7.33
2022-10-03T17:22:43.106Z,4.27
2022-10-03T17:25:18.953Z,4.97
2022-10-03T17:27:50.781Z,5.97
2022-10-03T17:30:48.947Z,3.40
2022-10-03T17:33:18.778Z,6.37
2022-10-03T17:36:13.241Z,4.87
2022-10-03T17:39:03.537Z,5.30
2022-10-03T17:41:50.211Z,5.37
2022-10-03T17:44:33.180Z,4.77
2022-10-03T17:47:18.174Z,6.23
2022-10-03T17:50:03.661Z,5.63
2022-10-03T17:52:31.678Z,7.13
2022-10-03T17:55:02.242Z,7.27
2022-10-03T17:57:39.603Z,5.63
2022-10-03T18:00:24.674Z,3.90
2022-10-03T18:03:14.788Z,5.87
2022-10-03T18:05:44.478Z,6.20
2022-10-03T18:08:21.768Z,8.53
2022-10-03T18:10:54.657Z,3.43
2022-10-03T18:13:42.514Z,8.17
2022-10-03T18:16:24.934Z,5.23
2022-10-03T18:19:21.583Z,4.20
2022-10-03T18:22:02.395Z,5.37
2022-10-03T18:24:53.009Z,3.63
2022-10-03T18:27:51.347Z,6.20
2022-10-03T18:30:23.967Z,6.23
2022-10-03T18:32:52.080Z,3.63
2022-10-03T18:35:34.142Z,4.00
2022-10-03T18:38:03.732Z,3.67
2022-10-03T18:40:47.511Z,4.67
2022-10-03T18:43:36.947Z,4.67
2022-10-03T18:46:16.837Z,4.93
2022-10-03T18:49:32.497Z,3.53
2022-10-03T18:52:19.541Z,4.50
2022-10-03T18:54:59.548Z,5.57
2022-10-03T18:57:46.578Z,3.97
2022-10-03T19:00:20.372Z,6.30
2022-10-03T19:03:01.265Z,5.43
2022-10-03T19:05:42.855Z,7.87
2022-10-03T19:08:27.769Z,8.63
2022-10-03T19:11:20.185Z,6.63
2022-10-03T19:14:08.911Z,5.27
2022-10-03T19:16:59.783Z,3.77
2022-10-03T19:19:41.642Z,5.23
2022-10-03T19:22:14.907Z,6.57
2022-10-03T19:24:58.453Z,5.10
2022-10-03T19:27:42.476Z,8.60
2022-10-03T19:30:11.871Z,6.87
2022-10-03T19:32:43.092Z,3.43
2022-10-03T19:35:14.102Z,4.37
2022-10-03T19:37:52.129Z,3.73
2022-10-03T19:40:44.769Z,5.00
